createdAt,value
2018-05-04T00:00:21.792Z,55.40
2018-05-04T00:02:49.946Z,55.50
2018-05-04T00:05:18.065Z,55.50
2018-05-04T00:07:46.180Z,55.50
2018-05-04T00:10:14.831Z,55.60
2018-05-04T00:12:43.044Z,55.60
2018-05-04T00:15:11.206Z,55.70
2018-05-04T00:17:39.290Z,55.80
2018-05-04T00:20:07.770Z,55.80
2018-05-04T00:22:36.349Z,55.90
2018-05-04T00:25:04.479Z,56.00
2018-05-04T00:27:32.603Z,56.70
2018-05-04T00:30:00.828Z,56.00
2018-05-04T00:32:29.022Z,56.10
2018-05-04T00:34:57.127Z,56.00
2018-05-04T00:37:25.287Z,56.00
2018-05-04T00:39:53.445Z,56.00
2018-05-04T00:42:21.586Z,56.00
2018-05-04T00:44:49.683Z,56.00
2018-05-04T00:47:17.788Z,55.90
2018-05-04T00:49:45.913Z,55.90
2018-05-04T00:52:14.052Z,55.80
2018-05-04T00:54:42.983Z,55.80
2018-05-04T00:57:11.091Z,55.80
2018-05-04T00:59:39.189Z,55.80
2018-05-04T01:02:07.297Z,55.70
2018-05-04T01:04:35.405Z,55.70
2018-05-04T01:07:03.549Z,55.70
2018-05-04T01:09:31.753Z,55.70
2018-05-04T01:11:59.997Z,55.70
2018-05-04T01:14:28.220Z,55.60
2018-05-04T01:16:56.434Z,55.60
2018-05-04T01:19:24.739Z,55.50
2018-05-04T01:21:52.888Z,55.50
2018-05-04T01:24:21.032Z,55.50
2018-05-04T01:26:49.122Z,55.50
2018-05-04T01:29:17.304Z,55.40
2018-05-04T01:31:45.414Z,55.40
2018-05-04T01:34:13.520Z,55.40
2018-05-04T01:36:42.410Z,55.20
2018-05-04T01:39:10.536Z,55.20
2018-05-04T01:41:38.711Z,55.20
2018-05-04T01:44:06.835Z,55.10
2018-05-04T01:46:34.928Z,55.10
2018-05-04T01:49:03.057Z,55.10
2018-05-04T01:51:31.177Z,55.10
2018-05-04T01:53:59.285Z,55.10
2018-05-04T01:56:27.470Z,55.20
2018-05-04T01:58:55.727Z,55.20
2018-05-04T02:01:23.945Z,55.20
2018-05-04T02:03:52.167Z,55.20
2018-05-04T02:06:20.649Z,55.30
2018-05-04T02:08:48.773Z,55.90
2018-05-04T02:11:16.989Z,55.30
2018-05-04T02:13:45.185Z,55.40
2018-05-04T02:16:13.341Z,55.30
2018-05-04T02:18:41.464Z,55.30
2018-05-04T02:21:09.600Z,55.70
2018-05-04T02:23:37.708Z,55.30
2018-05-04T02:26:05.854Z,55.30
2018-05-04T02:28:34.740Z,55.30
2018-05-04T02:31:02.840Z,55.30
2018-05-04T02:33:30.982Z,55.30
2018-05-04T02:35:59.102Z,55.30
2018-05-04T02:38:27.229Z,55.20
2018-05-04T02:40:55.334Z,55.20
2018-05-04T02:43:24.270Z,55.30
2018-05-04T02:45:52.415Z,55.20
2018-05-04T02:48:20.570Z,55.30
2018-05-04T02:50:50.301Z,55.40
2018-05-04T02:53:18.420Z,55.30
2018-05-04T02:55:46.534Z,55.40
2018-05-04T02:58:14.645Z,55.40
2018-05-04T03:00:42.871Z,55.50
2018-05-04T03:03:11.115Z,55.50
2018-05-04T03:05:39.239Z,55.50
2018-05-04T03:08:07.393Z,55.50
2018-05-04T03:10:35.527Z,55.40
2018-05-04T03:13:03.665Z,55.40
2018-05-04T03:15:31.757Z,55.50
2018-05-04T03:18:01.874Z,55.60
2018-05-04T03:20:29.983Z,55.50
2018-05-04T03:22:58.095Z,55.50
2018-05-04T03:25:26.216Z,55.50
2018-05-04T03:27:54.337Z,55.50
2018-05-04T03:30:23.290Z,55.50
2018-05-04T03:32:51.409Z,55.50
2018-05-04T03:35:19.525Z,55.50
2018-05-04T03:37:47.613Z,55.50
2018-05-04T03:40:15.808Z,55.60
2018-05-04T03:42:44.095Z,55.60
2018-05-04T03:45:12.327Z,55.50
2018-05-04T03:47:40.551Z,55.50
2018-05-04T03:50:08.816Z,55.60
2018-05-04T03:52:36.957Z,55.60
2018-05-04T03:55:05.074Z,55.60
2018-05-04T03:57:50.946Z,55.60
2018-05-04T04:03:45.254Z,55.60
2018-05-04T04:06:13.390Z,55.70
2018-05-04T04:08:41.617Z,55.80
2018-05-04T04:11:09.784Z,55.80
2018-05-04T04:13:37.935Z,55.90
2018-05-04T04:16:06.031Z,56.00
2018-05-04T04:18:34.169Z,56.00
2018-05-04T04:21:02.287Z,56.10
2018-05-04T04:23:30.395Z,56.10
2018-05-04T04:25:58.521Z,56.10
2018-05-04T04:28:26.622Z,56.30
2018-05-04T04:30:54.760Z,56.30
2018-05-04T04:33:24.173Z,56.40
2018-05-04T04:35:52.343Z,56.40
2018-05-04T04:38:20.519Z,56.60
2018-05-04T04:40:48.688Z,56.60
2018-05-04T04:43:16.866Z,56.70
2018-05-04T04:45:44.978Z,56.80
2018-05-04T04:48:13.106Z,57.00
2018-05-04T04:50:41.253Z,57.00
2018-05-04T04:53:09.370Z,57.10
2018-05-04T04:55:37.470Z,57.10
2018-05-04T04:58:05.642Z,57.20
2018-05-04T05:00:34.544Z,57.20
2018-05-04T05:03:02.672Z,57.20
2018-05-04T05:05:30.804Z,57.20
2018-05-04T05:07:58.906Z,57.30
2018-05-04T05:10:27.039Z,57.40
2018-05-04T05:12:55.154Z,57.40
2018-05-04T05:15:23.336Z,57.50
2018-05-04T05:17:51.471Z,57.60
2018-05-04T05:20:19.723Z,57.60
2018-05-04T05:22:47.857Z,57.70
2018-05-04T05:25:15.997Z,57.70
2018-05-04T05:27:44.125Z,57.80
2018-05-04T05:30:12.298Z,57.90
2018-05-04T05:32:40.454Z,57.90
2018-05-04T05:35:08.551Z,57.90
2018-05-04T05:37:37.430Z,58.00
2018-05-04T05:40:05.547Z,58.00
2018-05-04T05:42:33.667Z,58.00
2018-05-04T05:45:01.798Z,58.00
2018-05-04T05:47:29.904Z,58.00
2018-05-04T05:49:58.166Z,57.90
2018-05-04T05:52:26.194Z,57.90
2018-05-04T05:54:54.387Z,57.80
2018-05-04T05:57:22.516Z,57.80
2018-05-04T05:59:50.789Z,57.70
2018-05-04T06:02:18.971Z,57.70
2018-05-04T06:04:47.163Z,57.60
2018-05-04T06:07:15.265Z,57.60
2018-05-04T06:09:43.394Z,57.50
2018-05-04T06:12:11.504Z,57.40
2018-05-04T06:14:39.617Z,57.30
2018-05-04T06:17:07.758Z,57.30
2018-05-04T06:19:35.874Z,57.30
2018-05-04T06:22:04.042Z,57.20
2018-05-04T06:24:32.177Z,57.10
2018-05-04T06:27:00.338Z,57.10
2018-05-04T06:29:28.449Z,57.00
2018-05-04T06:31:57.286Z,57.10
2018-05-04T06:34:25.724Z,57.10
2018-05-04T06:36:53.855Z,57.00
2018-05-04T06:39:21.967Z,56.90
2018-05-04T06:41:50.083Z,56.90
2018-05-04T06:44:18.310Z,56.90
2018-05-04T06:46:46.496Z,56.80
2018-05-04T06:49:14.735Z,56.80
2018-05-04T06:51:43.011Z,56.70
2018-05-04T06:54:11.226Z,56.70
2018-05-04T06:56:39.504Z,56.70
2018-05-04T06:59:07.722Z,56.60
2018-05-04T07:01:35.972Z,57.20
2018-05-04T07:04:04.301Z,56.50
2018-05-04T07:06:33.827Z,56.40
2018-05-04T07:09:01.988Z,56.40
2018-05-04T07:11:30.925Z,56.40
2018-05-04T07:13:59.047Z,56.40
2018-05-04T07:16:27.186Z,56.30
2018-05-04T07:18:55.292Z,56.30
2018-05-04T07:21:23.404Z,56.30
2018-05-04T07:23:51.508Z,56.20
2018-05-04T07:26:19.639Z,56.20
2018-05-04T07:28:47.821Z,56.10
2018-05-04T07:31:15.908Z,56.20
2018-05-04T07:33:44.172Z,56.10
2018-05-04T07:36:12.378Z,56.70
2018-05-04T07:38:40.612Z,56.10
2018-05-04T07:41:08.826Z,56.10
2018-05-04T07:43:36.960Z,56.00
2018-05-04T07:46:05.132Z,55.90
2018-05-04T07:48:33.271Z,55.90
2018-05-04T07:51:02.173Z,55.80
2018-05-04T07:53:30.270Z,55.80
2018-05-04T07:55:58.413Z,55.80
2018-05-04T07:58:26.619Z,55.70
2018-05-04T08:00:54.836Z,55.60
2018-05-04T08:03:23.312Z,55.50
2018-05-04T08:05:51.420Z,55.40
2018-05-04T08:08:19.566Z,55.40
2018-05-04T08:10:47.697Z,55.40
2018-05-04T08:13:15.818Z,55.30
2018-05-04T08:15:44.090Z,55.10
2018-05-04T08:18:12.220Z,55.10
2018-05-04T08:20:40.386Z,55.10
2018-05-04T08:23:08.495Z,55.00
2018-05-04T08:25:36.601Z,55.10
2018-05-04T08:28:04.704Z,55.10
2018-05-04T08:30:32.843Z,55.10
2018-05-04T08:33:00.997Z,55.10
2018-05-04T08:35:29.940Z,55.20
2018-05-04T08:37:58.031Z,55.00
2018-05-04T08:40:26.197Z,55.00
2018-05-04T08:42:58.392Z,55.10
2018-05-04T08:45:26.424Z,55.10
2018-05-04T08:47:54.541Z,55.10
2018-05-04T08:50:22.675Z,55.20
2018-05-04T08:52:50.783Z,55.20
2018-05-04T08:55:18.904Z,55.20
2018-05-04T08:57:47.604Z,55.20
2018-05-04T09:00:15.730Z,55.20
2018-05-04T09:02:45.197Z,55.20
2018-05-04T09:05:13.490Z,55.20
2018-05-04T09:07:41.762Z,55.20
2018-05-04T09:10:09.869Z,55.30
2018-05-04T09:12:38.026Z,55.30
2018-05-04T09:15:06.234Z,55.30
2018-05-04T09:17:34.441Z,55.30
2018-05-04T09:20:03.163Z,55.30
2018-05-04T09:22:32.053Z,55.30
2018-05-04T09:25:00.183Z,55.20
2018-05-04T09:27:28.304Z,55.20
2018-05-04T09:29:56.427Z,55.20
2018-05-04T09:32:24.557Z,55.30
2018-05-04T09:34:53.459Z,55.40
2018-05-04T09:37:21.602Z,55.30
2018-05-04T09:39:49.921Z,55.40
2018-05-04T09:42:22.347Z,55.40
2018-05-04T09:44:50.461Z,55.40
2018-05-04T09:47:18.587Z,55.40
2018-05-04T09:49:46.717Z,55.50
2018-05-04T09:52:14.855Z,55.50
2018-05-04T09:54:43.778Z,55.60
2018-05-04T09:57:11.923Z,55.60
2018-05-04T09:59:40.024Z,55.60
2018-05-04T10:02:08.151Z,56.30
2018-05-04T10:04:36.267Z,55.80
2018-05-04T10:07:04.384Z,55.80
2018-05-04T10:09:32.594Z,55.80
2018-05-04T10:12:01.555Z,55.80
2018-05-04T10:14:29.683Z,55.80
2018-05-04T10:16:57.796Z,55.90
2018-05-04T10:19:25.917Z,55.90
2018-05-04T10:21:54.045Z,55.90
2018-05-04T10:24:22.176Z,55.90
2018-05-04T10:26:50.311Z,55.90
2018-05-04T10:29:19.184Z,55.80
2018-05-04T10:31:47.793Z,55.80
2018-05-04T10:34:15.923Z,55.70
2018-05-04T10:36:44.218Z,55.60
2018-05-04T10:39:12.373Z,55.40
2018-05-04T10:41:40.484Z,55.30
2018-05-04T10:44:08.597Z,55.20
2018-05-04T10:46:36.769Z,55.10
2018-05-04T10:49:04.879Z,55.00
2018-05-04T10:51:32.997Z,54.90
2018-05-04T10:54:01.953Z,54.90
2018-05-04T10:56:30.232Z,54.90
2018-05-04T10:58:58.425Z,54.90
2018-05-04T11:01:26.987Z,54.80
2018-05-04T11:03:55.087Z,54.70
2018-05-04T11:06:23.484Z,54.70
2018-05-04T11:08:51.607Z,54.70
2018-05-04T11:11:19.724Z,54.70
2018-05-04T11:13:47.849Z,54.50
2018-05-04T11:16:15.940Z,54.50
2018-05-04T11:18:44.054Z,54.30
2018-05-04T11:21:12.181Z,54.20
2018-05-04T11:23:40.306Z,54.20
2018-05-04T11:26:08.417Z,54.10
2018-05-04T11:28:36.539Z,54.00
2018-05-04T11:31:04.709Z,54.00
2018-05-04T11:33:32.933Z,54.00
2018-05-04T11:36:01.238Z,53.90
2018-05-04T11:38:29.471Z,53.80
2018-05-04T11:40:57.622Z,53.90
2018-05-04T11:43:25.867Z,53.90
2018-05-04T11:45:54.157Z,53.80
2018-05-04T11:48:28.298Z,53.70
2018-05-04T11:50:57.754Z,53.70
2018-05-04T11:53:26.970Z,53.70
2018-05-04T11:55:55.378Z,53.60
2018-05-04T11:58:24.258Z,53.50
2018-05-04T12:00:52.451Z,53.40
2018-05-04T12:03:22.033Z,53.40
2018-05-04T12:05:50.212Z,53.30
2018-05-04T12:08:18.356Z,53.20
2018-05-04T12:10:47.191Z,53.20
2018-05-04T12:13:15.322Z,53.20
2018-05-04T12:15:44.051Z,53.20
2018-05-04T12:18:12.924Z,53.10
2018-05-04T12:20:41.393Z,53.10
2018-05-04T12:23:09.737Z,53.00
2018-05-04T12:25:37.897Z,53.00
2018-05-04T12:28:06.038Z,52.90
2018-05-04T12:30:34.190Z,52.80
2018-05-04T12:33:02.377Z,52.80
2018-05-04T12:35:30.999Z,52.80
2018-05-04T12:37:59.153Z,52.70
2018-05-04T12:40:27.547Z,52.70
2018-05-04T12:42:55.679Z,52.70
2018-05-04T12:45:23.836Z,52.60
2018-05-04T12:47:52.087Z,52.70
2018-05-04T12:50:20.268Z,52.60
2018-05-04T12:52:48.503Z,52.60
2018-05-04T12:55:17.155Z,52.50
2018-05-04T12:57:45.255Z,52.50
2018-05-04T13:00:13.396Z,52.50
2018-05-04T13:02:41.588Z,52.40
2018-05-04T13:05:09.774Z,52.40
2018-05-04T13:07:37.923Z,52.50
2018-05-04T13:10:06.070Z,52.40
2018-05-04T13:12:34.162Z,52.30
2018-05-04T13:15:02.989Z,52.20
2018-05-04T13:17:31.143Z,52.20
2018-05-04T13:19:59.315Z,52.10
2018-05-04T13:22:27.498Z,51.90
2018-05-04T13:24:55.718Z,51.90
2018-05-04T13:27:23.843Z,51.60
2018-05-04T13:29:52.053Z,51.40
2018-05-04T13:32:20.260Z,51.20
2018-05-04T13:34:48.370Z,51.10
2018-05-04T13:37:16.478Z,50.80
2018-05-04T13:39:44.613Z,50.40
2018-05-04T13:42:12.719Z,50.00
2018-05-04T13:44:40.911Z,49.60
2018-05-04T13:47:09.050Z,49.30
2018-05-04T13:49:37.248Z,49.00
2018-05-04T13:52:05.390Z,48.80
2018-05-04T13:54:33.492Z,48.70
2018-05-04T13:57:01.627Z,48.50
2018-05-04T13:59:30.247Z,48.30
2018-05-04T14:01:59.139Z,48.40
2018-05-04T14:04:27.275Z,47.70
2018-05-04T14:06:55.399Z,47.30
2018-05-04T14:09:23.538Z,46.90
2018-05-04T14:11:51.657Z,47.10
2018-05-04T14:14:19.784Z,46.40
2018-05-04T14:16:47.921Z,46.10
2018-05-04T14:19:16.091Z,45.70
2018-05-04T14:21:44.200Z,45.90
2018-05-04T14:24:12.314Z,44.70
2018-05-04T14:26:40.420Z,44.00
2018-05-04T14:29:08.542Z,43.40
2018-05-04T14:44:31.782Z,43.00
2018-05-04T14:47:00.027Z,45.40
2018-05-04T14:49:28.883Z,43.60
2018-05-04T14:51:57.009Z,43.60
2018-05-04T14:54:25.123Z,42.80
2018-05-04T14:56:53.243Z,42.00
2018-05-04T14:59:21.353Z,41.10
2018-05-04T15:01:49.594Z,40.20
2018-05-04T15:04:17.808Z,39.40
2018-05-04T15:06:46.707Z,37.90
2018-05-04T15:09:14.832Z,37.80
2018-05-04T15:11:42.947Z,37.10
2018-05-04T15:14:11.073Z,36.30
2018-05-04T15:16:39.190Z,35.60
2018-05-04T15:19:07.323Z,35.10
2018-05-04T15:21:35.447Z,35.50
2018-05-04T15:24:03.566Z,34.90
2018-05-04T15:26:31.695Z,34.80
2018-05-04T15:29:00.560Z,34.70
2018-05-04T15:31:29.480Z,34.20
2018-05-04T15:33:57.948Z,34.10
2018-05-04T15:36:26.051Z,34.60
2018-05-04T15:38:54.200Z,33.70
2018-05-04T15:41:22.348Z,33.50
2018-05-04T15:43:51.249Z,33.10
2018-05-04T15:46:19.348Z,33.00
2018-05-04T15:48:52.977Z,32.80
2018-05-04T15:51:26.661Z,32.60
2018-05-04T15:53:54.801Z,32.50
2018-05-04T15:56:22.942Z,32.60
2018-05-04T15:58:51.042Z,32.70
2018-05-04T16:01:19.225Z,32.90
2018-05-04T16:03:47.422Z,33.00
2018-05-04T16:06:15.615Z,33.10
2018-05-04T16:08:43.718Z,33.20
2018-05-04T16:11:11.807Z,33.40
2018-05-04T16:13:40.572Z,33.60
2018-05-04T16:16:08.691Z,33.90
2018-05-04T16:18:36.861Z,34.10
2018-05-04T16:21:05.043Z,34.40
2018-05-04T16:23:33.155Z,34.70
2018-05-04T16:26:01.312Z,34.90
2018-05-04T16:28:30.025Z,35.10
2018-05-04T16:30:58.153Z,35.40
2018-05-04T16:33:26.404Z,35.60
2018-05-04T16:35:54.661Z,35.90
2018-05-04T16:38:24.236Z,36.50
2018-05-04T16:40:52.360Z,36.40
2018-05-04T16:43:20.483Z,36.70
2018-05-04T16:45:48.622Z,37.10
2018-05-04T16:48:22.154Z,37.30
2018-05-04T16:50:50.283Z,37.60
2018-05-04T16:53:18.436Z,37.70
2018-05-04T16:55:46.573Z,37.90
2018-05-04T16:58:14.701Z,38.30
2018-05-04T17:00:42.853Z,38.50
2018-05-04T17:03:11.110Z,38.80
2018-05-04T17:05:39.315Z,39.00
2018-05-04T17:08:07.865Z,39.40
2018-05-04T17:10:35.985Z,39.90
2018-05-04T17:13:04.117Z,39.90
2018-05-04T17:15:32.266Z,40.10
2018-05-04T17:18:00.419Z,40.30
2018-05-04T17:20:28.586Z,40.50
2018-05-04T17:22:57.190Z,40.80
2018-05-04T17:25:25.345Z,41.10
2018-05-04T17:27:53.591Z,41.30
2018-05-04T17:30:22.172Z,41.60
2018-05-04T17:32:51.159Z,41.80
2018-05-04T17:35:20.080Z,42.40
2018-05-04T17:37:48.896Z,42.40
2018-05-04T17:40:17.062Z,42.60
2018-05-04T17:42:45.182Z,42.90
2018-05-04T17:45:13.364Z,43.10
2018-05-04T17:47:42.251Z,43.50
2018-05-04T17:50:11.167Z,43.70
2018-05-04T17:52:39.313Z,43.70
2018-05-04T17:55:07.547Z,43.90
2018-05-04T17:57:35.596Z,44.10
2018-05-04T18:00:03.707Z,44.30
2018-05-04T18:02:31.849Z,44.60
2018-05-04T18:04:59.986Z,44.80
2018-05-04T18:07:28.129Z,45.10
2018-05-04T18:09:56.322Z,45.40
2018-05-04T18:12:25.191Z,45.90
2018-05-04T18:14:53.323Z,45.90
2018-05-04T18:17:21.628Z,46.20
2018-05-04T18:19:49.774Z,46.50
2018-05-04T18:22:17.933Z,46.80
2018-05-04T18:24:50.393Z,47.20
2018-05-04T18:27:18.501Z,47.60
2018-05-04T18:29:46.713Z,48.00
2018-05-04T18:32:14.995Z,48.30
2018-05-04T18:34:43.226Z,48.70
2018-05-04T18:37:11.424Z,49.00
2018-05-04T18:39:39.667Z,49.30
2018-05-04T18:42:07.924Z,49.60
2018-05-04T18:44:36.042Z,49.80
2018-05-04T18:47:04.162Z,50.10
2018-05-04T18:49:33.074Z,50.40
2018-05-04T18:52:01.198Z,50.70
2018-05-04T18:54:29.340Z,50.90
2018-05-04T18:56:57.462Z,51.20
2018-05-04T18:59:26.373Z,51.60
2018-05-04T19:01:54.525Z,51.60
2018-05-04T19:04:22.691Z,51.80
2018-05-04T19:06:51.333Z,52.00
2018-05-04T19:09:19.627Z,52.10
2018-05-04T19:11:47.883Z,52.30
2018-05-04T19:14:16.135Z,52.50
2018-05-04T19:16:44.381Z,52.60
2018-05-04T19:19:12.535Z,52.90
2018-05-04T19:21:40.697Z,53.00
2018-05-04T19:24:08.818Z,53.20
2018-05-04T19:26:36.949Z,53.30
2018-05-04T19:29:05.789Z,53.50
2018-05-04T19:31:33.913Z,53.60
2018-05-04T19:34:02.065Z,53.80
2018-05-04T19:36:30.339Z,53.90
2018-05-04T19:38:58.457Z,54.10
2018-05-04T19:41:26.599Z,54.20
2018-05-04T19:43:54.704Z,54.30
2018-05-04T19:46:22.852Z,54.40
2018-05-04T19:48:51.017Z,54.60
2018-05-04T19:51:19.130Z,54.70
2018-05-04T19:53:48.026Z,54.90
2018-05-04T19:56:16.148Z,54.80
2018-05-04T19:58:44.356Z,54.90
2018-05-04T20:01:12.464Z,55.00
2018-05-04T20:03:40.584Z,54.90
2018-05-04T20:06:08.698Z,54.90
2018-05-04T20:08:36.828Z,55.00
2018-05-04T20:11:04.943Z,55.00
2018-05-04T20:13:33.841Z,55.00
2018-05-04T20:16:01.974Z,55.00
2018-05-04T20:18:30.085Z,55.00
2018-05-04T20:20:58.198Z,55.00
2018-05-04T20:23:26.321Z,55.00
2018-05-04T20:25:55.233Z,55.20
2018-05-04T20:28:23.380Z,55.20
2018-05-04T20:30:51.503Z,55.20
2018-05-04T20:33:20.244Z,55.20
2018-05-04T20:35:49.125Z,55.40
2018-05-04T20:38:17.257Z,55.30
2018-05-04T20:40:45.402Z,55.30
2018-05-04T20:43:13.507Z,55.50
2018-05-04T20:45:41.644Z,55.60
2018-05-04T20:48:09.757Z,55.60
2018-05-04T20:50:37.865Z,55.60
2018-05-04T20:53:06.020Z,55.80
2018-05-04T20:55:34.282Z,55.80
2018-05-04T20:58:02.426Z,55.90
2018-05-04T21:00:30.618Z,56.10
2018-05-04T21:02:58.738Z,56.10
2018-05-04T21:05:27.622Z,56.20
2018-05-04T21:07:55.728Z,56.20
2018-05-04T21:10:23.848Z,56.30
2018-05-04T21:12:51.977Z,56.40
2018-05-04T21:15:20.250Z,56.60
2018-05-04T21:17:48.428Z,56.70
2018-05-04T21:20:16.544Z,56.80
2018-05-04T21:22:44.661Z,56.90
2018-05-04T21:25:12.801Z,57.00
2018-05-04T21:27:40.919Z,57.20
2018-05-04T21:30:09.023Z,57.20
2018-05-04T21:32:37.153Z,57.30
2018-05-04T21:35:05.289Z,57.30
2018-05-04T21:37:33.455Z,57.40
2018-05-04T21:40:01.713Z,57.50
2018-05-04T21:42:29.934Z,57.60
2018-05-04T21:44:58.852Z,57.90
2018-05-04T21:47:27.179Z,57.80
2018-05-04T21:49:55.304Z,58.00
2018-05-04T21:52:23.421Z,58.00
2018-05-04T21:54:51.552Z,58.10
2018-05-04T21:57:19.665Z,58.10
2018-05-04T21:59:47.831Z,58.20
2018-05-04T22:02:16.627Z,58.30
2018-05-04T22:04:44.804Z,58.30
2018-05-04T22:07:12.882Z,58.30
2018-05-04T22:09:40.987Z,58.30
2018-05-04T22:12:09.129Z,58.30
2018-05-04T22:14:37.238Z,58.40
2018-05-04T22:17:05.362Z,58.40
2018-05-04T22:19:33.474Z,58.40
2018-05-04T22:22:01.594Z,58.40
2018-05-04T22:24:29.982Z,58.40
2018-05-04T22:26:58.094Z,58.50
2018-05-04T22:29:26.223Z,58.50
2018-05-04T22:31:54.347Z,58.50
2018-05-04T22:34:22.461Z,58.60
2018-05-04T22:36:50.584Z,58.70
2018-05-04T22:39:18.753Z,58.70
2018-05-04T22:41:46.884Z,58.70
2018-05-04T22:44:15.128Z,58.70
2018-05-04T22:46:43.325Z,58.70
2018-05-04T22:49:11.467Z,58.70
2018-05-04T22:51:39.584Z,58.70
2018-05-04T22:54:07.706Z,58.80
2018-05-04T22:56:35.853Z,58.80
2018-05-04T22:59:03.965Z,58.80
2018-05-04T23:01:32.083Z,58.80
2018-05-04T23:04:00.855Z,58.90
2018-05-04T23:06:29.002Z,58.90
2018-05-04T23:08:57.116Z,58.90
2018-05-04T23:11:25.262Z,59.00
2018-05-04T23:13:53.380Z,59.00
2018-05-04T23:16:21.496Z,59.10
2018-05-04T23:18:49.648Z,59.20
2018-05-04T23:21:17.884Z,59.10
2018-05-04T23:23:46.051Z,59.20
2018-05-04T23:26:14.181Z,59.20
2018-05-04T23:28:42.371Z,59.20
2018-05-04T23:31:10.527Z,59.30
2018-05-04T23:33:38.653Z,59.40
2018-05-04T23:36:06.767Z,59.40
2018-05-04T23:38:34.915Z,59.40
2018-05-04T23:41:03.865Z,59.50
2018-05-04T23:43:32.026Z,59.50
2018-05-04T23:46:00.168Z,59.60
2018-05-04T23:48:28.313Z,59.60
2018-05-04T23:50:56.450Z,59.70
2018-05-04T23:53:24.578Z,59.80
2018-05-04T23:55:52.720Z,59.90
2018-05-04T23:58:20.824Z,60.00
